Time;durP1;ratioP1;P1;durP2;ratioP2;P2;SDS_P1;SDS_P2;PMS_P1;PMS_P2;Temp;Humidity;BMP_temperature;BMP_pressure;BME280_temperature;BME280_humidity;BME280_pressure;Samples;Min_cycle;Max_cycle;Signal;HPM_P1;HPM_P2
2023/01/04 00:00:17;;;;;;;0.77;0.77;;;;;;;2.03;75.40;98135.34;4768985;30;20471;-89
2023/01/04 00:02:43;;;;;;;1.10;0.93;;;;;;;2.05;75.52;98132.34;4760835;30;20043;-88
2023/01/04 00:05:09;;;;;;;2.17;0.73;;;;;;;2.42;75.35;98199.09;4753979;30;20048;-89
2023/01/04 00:07:35;;;;;;;1.48;0.80;;;;;;;1.95;75.27;98119.78;4766564;30;20051;-89
2023/01/04 00:10:01;;;;;;;0.75;0.60;;;;;;;2.62;75.01;98218.81;4772216;29;20591;-88
2023/01/04 00:12:29;;;;;;;0.60;0.60;;;;;;;2.32;74.76;98209.97;4771864;30;20058;-89
2023/01/04 00:14:55;;;;;;;0.77;0.77;;;;;;;2.33;75.04;98203.50;4756982;30;20075;-91
2023/01/04 00:17:22;;;;;;;1.30;0.90;;;;;;;2.14;75.21;98167.56;4748364;30;20051;-89
2023/01/04 00:19:48;;;;;;;2.20;0.90;;;;;;;2.05;74.52;98146.63;4789471;29;20043;-89
2023/01/04 00:22:14;;;;;;;0.80;0.80;;;;;;;2.55;74.10;98230.75;4753803;29;20581;-89
2023/01/04 00:24:40;;;;;;;0.60;0.60;;;;;;;2.03;74.25;98154.19;4760128;29;20070;-89
2023/01/04 00:27:06;;;;;;;0.80;0.80;;;;;;;2.24;74.73;98206.00;4784201;30;20161;-89
2023/01/04 00:29:32;;;;;;;0.75;0.70;;;;;;;2.00;74.06;98154.75;4774523;30;20553;-91
2023/01/04 00:31:58;;;;;;;1.10;1.00;;;;;;;2.10;73.85;98170.03;4760021;30;20050;-90
2023/01/04 00:34:24;;;;;;;1.58;0.80;;;;;;;2.47;73.58;98220.59;4756770;30;20074;-90
2023/01/04 00:36:50;;;;;;;1.40;0.82;;;;;;;2.70;73.71;98251.34;4742416;30;20403;-90
2023/01/04 00:39:17;;;;;;;0.85;0.70;;;;;;;2.22;72.73;98194.72;4741835;30;20051;-90
2023/01/04 00:41:47;;;;;;;0.88;0.88;;;;;;;2.49;72.85;98218.41;4747505;30;20127;-89
2023/01/04 00:44:14;;;;;;;1.05;0.75;;;;;;;2.55;73.11;98244.25;4765573;30;20080;-89
2023/01/04 00:46:41;;;;;;;0.65;0.65;;;;;;;2.43;73.27;98233.03;4774238;30;20068;-89
2023/01/04 00:49:09;;;;;;;;;;;;;;;2.70;73.46;98274.84;4761063;30;20105;-89
2023/01/04 00:51:36;;;;;;;0.80;0.80;;;;;;;2.44;73.63;98240.03;4775097;30;19933;-91
2023/01/04 00:54:05;;;;;;;0.90;0.80;;;;;;;2.03;73.51;98177.66;4762450;30;20048;-91
2023/01/04 00:56:32;;;;;;;0.70;0.70;;;;;;;2.19;73.40;98200.66;4757522;30;20044;-91
2023/01/04 00:59:00;;;;;;;0.70;0.70;;;;;;;1.91;73.85;98182.63;4757227;30;20156;-89
2023/01/04 01:01:28;;;;;;;0.70;0.70;;;;;;;2.08;73.69;98210.72;4772549;30;20075;-94
2023/01/04 01:03:57;;;;;;;2.55;0.75;;;;;;;2.35;73.11;98258.75;4747702;30;20048;-89
2023/01/04 01:06:25;;;;;;;0.60;0.60;;;;;;;2.02;73.88;98201.13;4745254;30;20067;-89
2023/01/04 01:08:52;;;;;;;0.95;0.88;;;;;;;2.23;74.93;98247.53;4773892;30;20675;-88
2023/01/04 01:11:20;;;;;;;1.23;1.05;;;;;;;2.16;76.82;98284.81;4744470;30;20043;-88
2023/01/04 01:13:47;;;;;;;2.38;1.52;;;;;;;2.19;74.35;98365.13;4779739;29;20151;-90
2023/01/04 01:16:16;;;;;;;7.22;2.05;;;;;;;2.09;73.37;98368.72;4790033;30;20155;-91
2023/01/04 01:18:43;;;;;;;3.33;2.00;;;;;;;1.71;73.18;98307.53;4774023;30;20078;-89
2023/01/04 01:21:15;;;;;;;5.25;2.40;;;;;;;2.15;71.19;98388.31;4754092;29;20058;-89
2023/01/04 01:23:42;;;;;;;6.28;2.65;;;;;;;1.75;71.55;98362.44;4743697;30;20532;-90
2023/01/04 01:26:13;;;;;;;5.45;2.88;;;;;;;1.51;69.86;98362.31;4728402;30;20529;-89
2023/01/04 01:28:40;;;;;;;6.63;2.50;;;;;;;1.29;66.76;98384.22;4777419;30;20055;-88
2023/01/04 01:31:12;;;;;;;4.53;2.72;;;;;;;0.83;66.58;98327.84;4758094;30;20051;-88
2023/01/04 01:33:40;;;;;;;6.05;2.95;;;;;;;1.38;67.49;98439.09;4759217;30;20077;-91
2023/01/04 01:36:07;;;;;;;4.22;2.47;;;;;;;0.55;66.81;98324.69;4755916;30;20134;-90
2023/01/04 01:38:33;;;;;;;;;;;;;;;1.23;68.06;98442.66;4756016;30;20067;-89
2023/01/04 01:40:59;;;;;;;5.40;2.73;;;;;;;1.03;66.15;98440.81;4764289;29;19933;-88
2023/01/04 01:43:46;;;;;;;33.33;4.45;;;;;;;1.07;67.33;98465.31;4775056;30;20307;-89
2023/01/04 01:46:14;;;;;;;11.15;3.17;;;;;;;0.65;67.31;98434.13;4756001;30;20044;-89
2023/01/04 01:48:41;;;;;;;6.90;3.35;;;;;;;0.84;67.55;98478.22;4756922;30;20051;-87
2023/01/04 01:51:12;;;;;;;5.63;2.85;;;;;;;0.65;67.32;98475.28;4775392;30;20050;-90
2023/01/04 01:53:42;;;;;;;4.90;2.75;;;;;;;0.68;66.82;98460.47;4763032;30;20051;-89
2023/01/04 01:56:09;;;;;;;6.35;3.10;;;;;;;0.70;66.68;98472.59;4759267;30;20043;-89
2023/01/04 01:58:39;;;;;;;4.93;2.97;;;;;;;0.48;67.05;98447.84;4758533;30;20656;-88
2023/01/04 02:01:07;;;;;;;6.15;2.90;;;;;;;0.34;66.30;98482.50;4742099;30;20426;-90
2023/01/04 02:03:40;;;;;;;4.00;2.25;;;;;;;0.21;66.51;98501.84;4774152;30;20421;-90
2023/01/04 02:06:12;;;;;;;4.60;2.70;;;;;;;-0.33;66.93;98410.88;4771321;30;20135;-89
2023/01/04 02:08:41;;;;;;;6.05;2.85;;;;;;;0.52;66.46;98543.03;4770362;30;20050;-89
2023/01/04 02:11:08;;;;;;;6.03;2.60;;;;;;;0.11;66.56;98508.00;4781793;30;20046;-88
2023/01/04 02:16:59;;;;;;;5.88;3.03;;;;;;;0.46;66.89;98544.91;4731631;30;20542;-89
2023/01/04 02:19:59;;;;;;;7.82;3.10;;;;;;;0.80;66.04;98598.22;4733271;30;20506;-89
2023/01/04 02:22:40;;;;;;;5.80;3.00;;;;;;;0.66;65.70;98611.38;4756793;30;20090;-88
2023/01/04 02:25:27;;;;;;;9.35;2.78;;;;;;;0.60;66.31;98617.00;4741286;30;20584;-88
2023/01/04 02:28:17;;;;;;;7.20;3.20;;;;;;;-0.01;66.78;98547.72;4776706;30;20055;-89
2023/01/04 02:31:28;;;;;;;4.15;2.58;;;;;;;0.45;66.92;98633.88;4753884;30;20079;-88
2023/01/04 02:34:35;;;;;;;5.43;3.00;;;;;;;0.06;67.19;98591.25;4753444;30;20051;-89
2023/01/04 02:37:47;;;;;;;6.72;3.10;;;;;;;0.53;67.85;98635.25;4706967;30;20118;-88
2023/01/04 02:40:47;;;;;;;4.05;2.40;;;;;;;0.19;66.65;98588.09;4757739;30;20055;-88
2023/01/04 02:47:13;;;;;;;4.32;2.78;;;;;;;0.66;66.32;98675.09;4717991;30;20091;-88
2023/01/04 02:52:24;;;;;;;4.63;2.55;;;;;;;0.33;65.77;98652.13;4718532;30;20173;-89
2023/01/04 02:54:54;;;;;;;5.38;2.88;;;;;;;0.28;65.92;98673.63;4732449;30;20045;-88
2023/01/04 02:58:01;;;;;;;7.10;2.80;;;;;;;0.36;66.59;98695.41;4721299;30;20523;-89
2023/01/04 03:07:25;;;;;;;6.47;2.92;;;;;;;0.01;66.88;98730.97;4728480;30;20100;-88
2023/01/04 03:16:20;;;;;;;6.63;3.78;;;;;;;-0.27;67.27;98686.44;4718773;30;20527;-88
2023/01/04 03:19:08;;;;;;;3.95;2.78;;;;;;;0.00;66.50;98783.09;4733723;30;20130;-89
2023/01/04 03:37:42;;;;;;;7.57;3.50;;;;;;;-0.04;67.40;98822.25;4746983;30;20144;-88
2023/01/04 03:50:24;;;;;;;8.93;4.07;;;;;;;-0.06;67.91;98862.03;4723441;30;20126;-89
2023/01/04 03:52:52;;;;;;;7.22;3.67;;;;;;;-0.40;67.96;98800.44;4704311;30;20056;-89
2023/01/04 03:55:32;;;;;;;6.45;3.35;;;;;;;-1.01;66.53;98732.72;4733784;30;20048;-89
2023/01/04 03:58:00;;;;;;;7.35;3.50;;;;;;;-0.60;66.96;98795.69;4733616;30;20114;-89
2023/01/04 04:00:33;;;;;;;7.15;3.78;;;;;;;-0.33;66.86;98827.09;4734615;30;20045;-88
2023/01/04 04:09:20;;;;;;;5.03;3.03;;;;;;;-0.07;66.30;98871.13;4737331;30;20048;-89
2023/01/04 04:12:42;;;;;;;6.63;3.35;;;;;;;-0.02;66.11;98888.13;4741168;30;20119;-89
2023/01/04 04:15:33;;;;;;;7.18;2.83;;;;;;;0.06;65.94;98892.22;4717952;30;20080;-90
2023/01/04 04:18:24;;;;;;;5.03;2.63;;;;;;;-0.08;66.70;98907.13;4711098;30;20364;-89
2023/01/04 04:20:56;;;;;;;4.57;2.47;;;;;;;-0.63;66.36;98817.69;4818682;29;20065;-88
2023/01/04 04:23:26;;;;;;;4.75;2.80;;;;;;;-0.33;66.17;98851.25;4792803;29;20051;-90
2023/01/04 04:25:59;;;;;;;7.07;3.40;;;;;;;-0.16;65.48;98872.69;4790314;29;20499;-89
2023/01/04 04:28:25;;;;;;;5.57;2.95;;;;;;;-0.57;66.25;98845.38;4792723;29;20125;-89
2023/01/04 04:31:01;;;;;;;5.38;3.20;;;;;;;-0.76;66.38;98810.03;4775030;30;20047;-90
2023/01/04 04:33:27;;;;;;;7.40;2.63;;;;;;;-0.29;66.90;98874.69;4790265;30;20807;-89
2023/01/04 04:36:07;;;;;;;4.70;2.75;;;;;;;-0.18;66.34;98929.31;4775053;30;20055;-90
2023/01/04 04:38:34;;;;;;;7.05;3.10;;;;;;;-0.51;66.77;98853.22;4806682;29;20124;-89
2023/01/04 04:43:52;;;;;;;3.17;1.95;;;;;;;-0.92;66.80;98835.06;4813626;29;20051;-87
2023/01/04 04:46:19;;;;;;;4.40;2.38;;;;;;;-0.15;67.22;98953.00;4780544;29;20047;-90
2023/01/04 04:48:45;;;;;;;5.65;3.08;;;;;;;-0.60;67.34;98852.06;4803109;29;20051;-91
2023/01/04 04:51:11;;;;;;;4.75;2.83;;;;;;;-0.09;67.22;98921.63;4802155;29;20039;-90
2023/01/04 04:53:37;;;;;;;6.07;3.00;;;;;;;-0.13;67.08;98912.44;4782217;30;20123;-90
2023/01/04 04:56:06;;;;;;;5.97;3.15;;;;;;;-0.30;66.78;98915.22;4768469;30;20043;-91
2023/01/04 04:58:32;;;;;;;4.25;2.90;;;;;;;-0.07;67.70;98974.03;4751521;30;20067;-89
2023/01/04 05:00:58;;;;;;;7.57;2.72;;;;;;;0.01;67.08;98974.66;4800580;29;20033;-90
2023/01/04 05:03:24;;;;;;;5.20;3.08;;;;;;;-0.45;67.21;98897.06;4830253;29;20055;-91
2023/01/04 05:05:50;;;;;;;8.07;2.85;;;;;;;-0.38;67.63;98937.16;4798313;29;20036;-91
2023/01/04 05:08:42;;;;;;;5.53;3.00;;;;;;;-0.19;68.12;99002.91;4820183;29;20023;-89
2023/01/04 05:11:14;;;;;;;5.53;3.05;;;;;;;-0.52;68.59;98956.31;4812337;29;20057;-89
2023/01/04 05:17:17;;;;;;;4.53;2.72;;;;;;;-0.41;67.90;98968.00;4811660;24;20066;-90
2023/01/04 05:19:49;;;;;;;5.78;2.63;;;;;;;-0.22;67.63;98999.94;4777550;30;20062;-92
2023/01/04 05:23:24;;;;;;;5.35;2.58;;;;;;;-0.23;67.33;99044.78;4772860;24;20064;-90
2023/01/04 05:25:57;;;;;;;2.88;1.27;;;;;;;-0.49;67.75;99032.88;4757611;30;20119;-90
2023/01/04 05:28:35;;;;;;;8.30;2.03;;;;;;;-0.41;67.69;99053.13;4735882;30;20049;-90
2023/01/04 05:31:03;;;;;;;4.25;2.47;;;;;;;-0.62;67.93;99006.41;4722902;30;20067;-91
2023/01/04 05:33:31;;;;;;;5.50;2.55;;;;;;;-0.35;68.48;99039.50;4723519;30;20049;-90
2023/01/04 05:36:01;;;;;;;5.35;2.75;;;;;;;-0.44;68.44;99053.59;4720839;30;20049;-90
2023/01/04 05:38:33;;;;;;;5.03;2.95;;;;;;;-0.77;68.15;99001.59;4707292;30;20083;-92
2023/01/04 05:41:00;;;;;;;5.18;2.83;;;;;;;-0.46;68.16;99037.75;4706924;30;20052;-90
2023/01/04 05:43:46;;;;;;;4.15;2.72;;;;;;;-0.83;67.34;98971.22;4724943;30;20564;-90
2023/01/04 05:46:12;;;;;;;4.60;2.60;;;;;;;-0.45;67.23;99049.31;4706710;30;20502;-91
2023/01/04 05:48:38;;;;;;;3.88;2.25;;;;;;;-0.50;66.48;99056.25;4735740;30;20071;-90
2023/01/04 05:51:08;;;;;;;5.32;2.40;;;;;;;-0.41;66.78;99071.91;4735797;30;20076;-92
2023/01/04 05:53:34;;;;;;;4.32;2.50;;;;;;;-0.52;67.18;99073.66;4735556;30;20073;-91
2023/01/04 05:56:00;;;;;;;3.80;2.08;;;;;;;-0.72;66.85;99068.78;4765124;24;20059;-88
2023/01/04 05:58:52;;;;;;;3.88;2.40;;;;;;;-0.40;67.34;99109.25;4774363;30;20039;-90
2023/01/04 06:01:24;;;;;;;5.25;2.70;;;;;;;-0.64;67.24;99071.03;4771963;30;20052;-90
2023/01/04 06:03:50;;;;;;;4.88;2.67;;;;;;;-0.48;66.43;99075.59;4742078;30;20043;-89
2023/01/04 06:06:16;;;;;;;6.18;3.13;;;;;;;-0.60;66.69;99056.06;4742855;30;20047;-91
2023/01/04 06:08:44;;;;;;;7.22;3.40;;;;;;;-0.29;66.82;99091.44;4748427;30;20097;-90
2023/01/04 06:11:10;;;;;;;7.68;3.33;;;;;;;-0.15;66.86;99132.19;4761114;30;20108;-89
2023/01/04 06:13:36;;;;;;;7.47;3.67;;;;;;;-0.67;67.33;99065.34;4774384;30;20680;-90
2023/01/04 06:16:03;;;;;;;6.13;3.42;;;;;;;-0.57;67.57;99105.78;4773582;30;20047;-92
2023/01/04 06:18:29;;;;;;;5.68;3.65;;;;;;;-0.82;68.16;99079.38;4745050;30;20051;-91
2023/01/04 06:20:56;;;;;;;5.55;3.13;;;;;;;-0.91;67.90;99111.16;4760770;30;20078;-92
2023/01/04 06:23:22;;;;;;;6.38;2.53;;;;;;;-1.20;66.73;99097.78;4743886;30;20051;-90
2023/01/04 06:25:54;;;;;;;7.20;2.60;;;;;;;-1.40;67.25;99061.75;4761094;30;20047;-91
2023/01/04 06:28:20;;;;;;;6.15;2.13;;;;;;;-1.23;65.69;99090.19;4759930;30;20104;-91
2023/01/04 06:30:52;;;;;;;5.10;2.28;;;;;;;-1.09;65.39;99120.25;4744415;30;20417;-90
2023/01/04 06:33:18;;;;;;;4.40;2.13;;;;;;;-0.65;65.56;99192.09;4771935;30;20146;-93
2023/01/04 06:35:57;;;;;;;4.55;2.50;;;;;;;-0.88;65.46;99120.59;4763182;30;20052;-93
2023/01/04 06:38:23;;;;;;;5.28;2.63;;;;;;;-0.75;64.83;99145.22;4770469;30;20047;-90
2023/01/04 06:40:53;;;;;;;4.05;2.60;;;;;;;-1.00;64.95;99069.66;4782435;30;20051;-90
2023/01/04 06:43:19;;;;;;;5.68;2.63;;;;;;;-0.78;63.77;99128.81;4759693;30;20085;-91
2023/01/04 06:45:48;;;;;;;4.40;2.40;;;;;;;-0.86;64.68;99127.34;4759576;30;20043;-91
2023/01/04 06:48:15;;;;;;;5.40;2.60;;;;;;;-0.97;65.77;99141.63;4773794;30;20114;-89
2023/01/04 06:50:44;;;;;;;4.03;2.38;;;;;;;-0.81;65.15;99164.97;4760453;30;20051;-91
2023/01/04 06:53:49;;;;;;;8.50;2.53;;;;;;;-0.59;65.37;99226.03;4782228;30;20027;-92
2023/01/04 06:56:18;;;;;;;4.10;1.85;;;;;;;-0.85;65.29;99182.63;4749735;24;20075;-91
2023/01/04 06:59:41;;;;;;;6.45;2.83;;;;;;;-0.91;65.64;99223.84;4830150;29;20073;-90
2023/01/04 07:02:07;;;;;;;4.80;2.78;;;;;;;-1.66;66.50;99117.56;4834205;24;20059;-91
2023/01/04 07:04:33;;;;;;;6.18;2.60;;;;;;;-1.25;66.72;99170.09;4782576;29;20047;-91
2023/01/04 07:06:59;;;;;;;6.75;3.00;;;;;;;-1.17;66.27;99163.53;4808714;24;20075;-88
2023/01/04 07:09:44;;;;;;;4.82;2.45;;;;;;;-0.65;66.28;99241.22;4810092;29;20053;-92
2023/01/04 07:12:11;;;;;;;6.43;3.13;;;;;;;-0.82;65.84;99181.34;4794616;29;20590;-90
2023/01/04 07:15:09;;;;;;;5.22;3.00;;;;;;;-0.58;65.74;99200.81;4774825;30;20062;-91
2023/01/04 07:17:35;;;;;;;6.53;3.30;;;;;;;-0.71;65.82;99175.09;4776578;30;20051;-92
2023/01/04 07:20:02;;;;;;;6.93;2.92;;;;;;;-0.61;65.82;99191.34;4771255;30;20047;-91
2023/01/04 07:22:54;;;;;;;9.52;3.30;;;;;;;-0.09;66.69;99249.41;4777248;30;20479;-91
2023/01/04 07:25:24;;;;;;;4.20;2.08;;;;;;;-1.06;64.20;99154.63;4767621;29;20042;-91
2023/01/04 07:31:51;;;;;;;7.50;2.80;;;;;;;-0.44;64.51;99277.28;4828380;23;20101;-92
2023/01/04 07:34:24;;;;;;;4.30;2.03;;;;;;;-1.38;64.89;99154.28;4806384;29;20046;-90
2023/01/04 07:36:54;;;;;;;6.90;2.50;;;;;;;-0.87;64.44;99265.22;4839829;24;20054;-90
2023/01/04 07:39:30;;;;;;;5.10;2.70;;;;;;;-1.57;64.05;99185.81;4776219;29;20054;-93
2023/01/04 07:42:57;;;;;;;8.27;2.53;;;;;;;-0.80;64.60;99297.28;4790656;24;20066;-91
2023/01/04 07:45:23;;;;;;;5.18;3.08;;;;;;;-1.06;64.42;99253.06;4782691;29;20050;-92
2023/01/04 07:47:59;;;;;;;3.97;2.22;;;;;;;-1.37;63.90;99195.31;4777568;30;20059;-90
2023/01/04 07:50:50;;;;;;;7.15;2.08;;;;;;;-0.77;64.08;99318.28;4769297;30;20082;-90
2023/01/04 07:53:21;;;;;;;4.70;2.38;;;;;;;-0.76;64.05;99310.00;4806637;29;20062;-89
2023/01/04 07:55:53;;;;;;;5.35;2.60;;;;;;;-1.04;64.13;99264.38;4801336;29;20053;-91
2023/01/04 07:58:31;;;;;;;5.80;2.42;;;;;;;-1.37;64.04;99212.22;4802368;24;20055;-94
2023/01/04 08:01:04;;;;;;;;;;;;;;;-0.80;64.76;99326.81;4794301;30;20134;-95
2023/01/04 08:03:30;;;;;;;5.47;2.72;;;;;;;-1.18;64.71;99253.09;4800113;29;20304;-91
2023/01/04 08:06:06;;;;;;;3.95;2.55;;;;;;;-0.89;65.14;99282.63;4765574;30;20043;-92
2023/01/04 08:08:45;;;;;;;5.63;2.60;;;;;;;-1.35;64.43;99209.31;4766698;30;20035;-90
2023/01/04 08:11:36;;;;;;;3.75;2.45;;;;;;;-0.64;64.22;99334.13;4796947;29;20067;-92
2023/01/04 08:14:29;;;;;;;7.72;2.90;;;;;;;-0.75;64.29;99308.13;4768324;30;20396;-92
2023/01/04 08:17:21;;;;;;;6.93;3.37;;;;;;;-0.34;64.06;99344.59;4736093;24;2264715;-93
2023/01/04 08:19:50;;;;;;;5.93;2.55;;;;;;;-0.97;64.36;99273.09;4804009;24;20311;-91
2023/01/04 08:22:16;;;;;;;5.50;2.65;;;;;;;-0.69;64.44;99317.13;4813968;29;20145;-91
2023/01/04 08:24:54;;;;;;;4.97;2.80;;;;;;;-0.44;64.38;99349.81;4769196;29;20051;-92
2023/01/04 08:27:21;;;;;;;4.93;2.65;;;;;;;-1.17;64.30;99286.91;4796729;29;20070;-94
2023/01/04 08:29:48;;;;;;;7.82;3.20;;;;;;;-0.88;64.69;99319.16;4786005;29;20133;-88
2023/01/04 08:32:14;;;;;;;5.07;2.95;;;;;;;-0.59;63.75;99334.22;4814837;29;20076;-94
2023/01/04 08:38:21;;;;;;;4.15;2.20;;;;;;;-0.87;63.38;99292.06;4764210;30;20058;-91
2023/01/04 08:40:51;;;;;;;7.95;3.95;;;;;;;-0.59;64.23;99320.00;4733862;30;20099;-90
2023/01/04 08:43:19;;;;;;;6.30;3.40;;;;;;;-0.91;63.67;99282.88;4732344;30;20073;-90
2023/01/04 08:46:07;;;;;;;7.55;2.90;;;;;;;-0.92;62.91;99283.13;4746402;30;20364;-93
2023/01/04 08:48:44;;;;;;;4.97;2.80;;;;;;;-0.84;63.56;99294.28;4744787;30;20047;-92
2023/01/04 08:51:13;;;;;;;6.93;3.10;;;;;;;-0.44;62.99;99340.94;4756938;30;20040;-94
2023/01/04 08:53:40;;;;;;;12.55;3.28;;;;;;;-0.84;62.70;99272.81;4744553;30;20152;-92
2023/01/04 08:56:13;;;;;;;6.30;3.25;;;;;;;-0.11;62.02;99364.38;4747008;24;20083;31
2023/01/04 08:58:40;;;;;;;6.63;3.22;;;;;;;-0.33;62.07;99351.63;4815575;29;20069;-92
2023/01/04 09:01:24;;;;;;;6.53;3.60;;;;;;;-0.17;61.28;99378.75;4818637;29;20054;-92
2023/01/04 09:03:55;;;;;;;7.03;3.50;;;;;;;-0.74;61.37;99302.53;4831369;29;20146;-92
2023/01/04 09:06:23;;;;;;;5.85;3.00;;;;;;;-1.17;60.75;99267.31;4814470;29;20046;-92
2023/01/04 09:09:50;;;;;;;6.63;3.38;;;;;;;-0.40;60.34;99372.41;4799280;29;20049;-92
2023/01/04 09:12:16;;;;;;;5.85;3.40;;;;;;;-0.73;61.18;99338.22;4824982;23;20048;-93
2023/01/04 09:15:42;;;;;;;8.25;4.00;;;;;;;-0.51;61.21;99384.84;4813272;29;20576;-93
2023/01/04 09:18:35;;;;;;;5.05;3.15;;;;;;;-0.61;61.21;99386.53;4791119;29;20050;-93
2023/01/04 09:21:30;;;;;;;8.02;3.95;;;;;;;-1.07;62.00;99318.50;4780282;29;20084;-91
2023/01/04 09:24:00;;;;;;;8.73;4.03;;;;;;;-1.54;62.11;99289.06;4798769;29;20236;-93
2023/01/04 09:26:36;;;;;;;11.02;5.72;;;;;;;-0.80;63.24;99367.06;4808569;29;20071;-91
2023/01/04 09:29:57;;;;;;;11.45;5.30;;;;;;;-0.65;61.87;99390.75;4777931;30;20044;-91
2023/01/04 09:32:34;;;;;;;12.65;5.93;;;;;;;-0.52;63.33;99385.91;4825275;24;20784;31
2023/01/04 09:35:00;;;;;;;16.73;6.35;;;;;;;-0.51;62.91;99365.25;4951697;24;20067;-92
2023/01/04 09:38:17;;;;;;;15.30;6.13;;;;;;;-0.36;60.64;99403.16;4768747;30;20130;-91
2023/01/04 09:41:08;;;;;;;;;;;;;;;-0.45;60.88;99393.00;4774383;30;20043;-89
2023/01/04 09:43:58;;;;;;;13.18;5.30;;;;;;;-0.87;60.78;99339.56;4773933;30;19927;-90
2023/01/04 09:46:43;;;;;;;12.18;6.32;;;;;;;-0.56;61.01;99395.50;4751216;30;20052;-90
2023/01/04 09:49:38;;;;;;;16.55;6.85;;;;;;;-0.69;61.54;99357.38;4780350;30;20048;-90
2023/01/04 09:52:39;;;;;;;16.58;7.72;;;;;;;-0.34;61.25;99398.31;4808081;24;20077;-88
2023/01/04 09:55:17;;;;;;;15.98;7.03;;;;;;;-0.78;61.17;99360.41;4793337;29;20109;-89
2023/01/04 09:58:00;;;;;;;13.88;7.18;;;;;;;-1.08;60.38;99295.41;4807903;29;20165;-86
2023/01/04 10:00:45;;;;;;;17.75;6.82;;;;;;;-0.88;60.22;99317.28;4826749;29;20111;-87
2023/01/04 10:03:32;;;;;;;10.65;5.60;;;;;;;-0.80;59.35;99362.53;4801740;29;20055;-89
2023/01/04 10:06:57;;;;;;;14.48;7.65;;;;;;;-0.74;59.93;99384.91;4804976;29;20513;-87
2023/01/04 10:09:23;;;;;;;13.77;7.30;;;;;;;-0.91;60.00;99351.81;4804766;29;20057;-88
2023/01/04 10:12:09;;;;;;;;;;;;;;;-0.70;59.40;99386.06;4808278;29;20061;-87
2023/01/04 10:14:48;;;;;;;13.65;6.90;;;;;;;-1.37;59.99;99275.75;4810638;29;19925;-91
2023/01/04 10:17:18;;;;;;;11.00;6.40;;;;;;;-0.67;59.60;99377.53;4812684;29;20053;-88
2023/01/04 10:20:18;;;;;;;14.88;7.57;;;;;;;-0.79;60.76;99331.97;4800169;29;20080;-91
2023/01/04 10:22:51;;;;;;;14.90;7.10;;;;;;;-0.42;59.21;99339.66;4802781;29;20138;-88
2023/01/04 10:25:52;;;;;;;14.18;7.00;;;;;;;-0.03;59.39;99367.47;4786259;29;20047;-87
2023/01/04 10:28:43;;;;;;;13.98;7.15;;;;;;;-0.01;60.00;99375.28;4789629;29;20083;-88
2023/01/04 10:31:51;;;;;;;14.65;7.47;;;;;;;0.21;60.02;99375.41;4777107;29;20046;-89
2023/01/04 10:34:23;;;;;;;12.23;6.95;;;;;;;-0.12;59.09;99339.38;4794597;29;20082;-88
2023/01/04 10:39:44;;;;;;;14.68;7.85;;;;;;;0.00;57.60;99328.56;4813520;29;20054;-87
2023/01/04 10:42:19;;;;;;;13.50;7.30;;;;;;;0.46;58.02;99377.66;4786839;29;20051;-91
2023/01/04 10:45:17;;;;;;;13.30;7.43;;;;;;;0.33;58.54;99346.56;4797747;29;20054;-90
2023/01/04 10:48:07;;;;;;;18.65;8.85;;;;;;;0.16;58.62;99308.09;4813722;29;20047;-88
2023/01/04 10:50:52;;;;;;;19.25;8.63;;;;;;;0.64;57.66;99366.66;4813368;29;20070;-88
2023/01/04 10:53:47;;;;;;;14.88;7.10;;;;;;;-0.04;56.87;99265.59;4789637;29;20062;-92
2023/01/04 10:56:24;;;;;;;13.70;7.20;;;;;;;0.38;57.87;99364.66;4791628;29;20057;-91
2023/01/04 10:58:56;;;;;;;17.00;7.88;;;;;;;0.50;58.15;99365.38;4786581;29;20047;-92
2023/01/04 11:04:41;;;;;;;12.80;6.50;;;;;;;0.03;58.07;99351.44;4775733;29;20103;-92
2023/01/04 11:07:18;;;;;;;14.10;7.30;;;;;;;-0.29;58.34;99330.47;4788268;29;20055;-87
2023/01/04 11:10:01;;;;;;;14.52;7.00;;;;;;;0.13;58.77;99343.53;4772261;29;20043;-90
2023/01/04 11:12:30;;;;;;;13.20;6.60;;;;;;;0.12;57.51;99299.72;4787703;29;20540;-90
2023/01/04 11:14:59;;;;;;;13.07;7.45;;;;;;;0.53;57.56;99343.38;4774754;30;20443;-89
2023/01/04 11:17:52;;;;;;;15.57;7.07;;;;;;;0.80;57.77;99356.13;4770489;29;20053;-90
2023/01/04 11:20:18;;;;;;;16.90;7.60;;;;;;;0.26;57.18;99253.69;4781021;29;20080;-90
2023/01/04 11:23:15;;;;;;;13.45;7.70;;;;;;;0.98;57.42;99352.34;4785676;30;20039;-91
2023/01/04 11:26:12;;;;;;;16.88;8.75;;;;;;;0.52;55.99;99328.28;4750107;29;20074;-90
2023/01/04 11:29:04;;;;;;;18.75;9.82;;;;;;;0.48;57.30;99319.09;4765592;29;20027;-92
2023/01/04 11:31:52;;;;;;;20.48;9.20;;;;;;;0.77;57.55;99364.69;4780434;29;20112;-91
2023/01/04 11:34:18;;;;;;;18.75;8.38;;;;;;;0.41;56.41;99292.38;4776462;30;20032;-90
2023/01/04 11:36:47;;;;;;;15.07;8.02;;;;;;;0.43;56.99;99327.06;4769025;30;20082;-91
2023/01/04 11:39:27;;;;;;;13.90;8.23;;;;;;;0.50;57.47;99376.16;4770284;30;20035;-90
2023/01/04 11:41:58;;;;;;;15.23;7.25;;;;;;;-0.28;57.45;99262.25;4753955;30;20131;-90
2023/01/04 11:44:26;;;;;;;15.73;7.25;;;;;;;-0.25;57.89;99308.25;4756267;30;20073;-89
2023/01/04 11:47:20;;;;;;;19.00;8.05;;;;;;;0.03;58.86;99378.31;4744307;30;20043;-90
2023/01/04 11:49:47;;;;;;;18.60;11.00;;;;;;;-0.32;59.14;99326.41;4750852;30;20144;-90
2023/01/04 11:52:33;;;;;;;12.27;6.82;;;;;;;-0.01;59.54;99373.41;4749533;30;20128;-88
2023/01/04 11:55:29;;;;;;;10.95;6.63;;;;;;;-0.22;58.94;99384.88;4774956;29;20061;-88
2023/01/04 11:58:10;;;;;;;11.77;6.07;;;;;;;-0.78;58.84;99300.56;4813569;24;20079;-88
2023/01/04 12:01:02;;;;;;;13.48;7.05;;;;;;;-0.17;61.67;99379.56;4803159;29;20065;-89
2023/01/04 12:03:38;;;;;;;12.70;5.70;;;;;;;-0.70;59.37;99324.31;4763757;30;20081;-92
2023/01/04 12:06:56;;;;;;;11.20;5.75;;;;;;;-0.42;59.75;99393.34;4762888;29;20043;-92
2023/01/04 12:09:25;;;;;;;10.75;6.15;;;;;;;-0.82;60.79;99319.03;4768057;30;20052;-91
2023/01/04 12:12:17;;;;;;;17.98;6.50;;;;;;;-0.19;59.71;99388.94;4754668;29;20051;-93
2023/01/04 12:14:48;;;;;;;10.65;5.57;;;;;;;-0.02;58.65;99392.47;4770156;29;20079;-87
2023/01/04 12:17:47;;;;;;;10.57;5.07;;;;;;;-0.57;58.46;99324.03;4782811;29;20459;-89
2023/01/04 12:20:23;;;;;;;13.55;6.13;;;;;;;-0.39;59.54;99336.47;4796396;29;20107;-85
2023/01/04 12:22:50;;;;;;;12.27;5.60;;;;;;;-0.59;59.26;99325.38;4801787;29;20069;-88
2023/01/04 12:25:19;;;;;;;7.57;3.47;;;;;;;-0.47;58.84;99387.88;4801319;29;20181;-89
2023/01/04 12:28:33;;;;;;;4.82;3.05;;;;;;;-0.75;59.22;99400.22;4793701;29;20047;-85
2023/01/04 12:31:24;;;;;;;5.45;2.67;;;;;;;-0.83;58.86;99400.59;4785693;29;20111;-92
2023/01/04 12:34:24;;;;;;;4.90;2.50;;;;;;;-1.13;59.76;99395.34;4805501;24;20094;-92
2023/01/04 12:37:20;;;;;;;5.45;2.78;;;;;;;-1.42;59.72;99332.78;4778481;30;20154;-86
2023/01/04 12:40:36;;;;;;;4.00;2.10;;;;;;;-1.04;60.09;99407.38;4779810;30;20048;-86
2023/01/04 12:43:37;;;;;;;4.95;2.80;;;;;;;-0.81;60.20;99411.88;4795080;29;20146;-87
2023/01/04 12:49:57;;;;;;;5.63;3.20;;;;;;;-0.81;60.03;99408.38;4774093;29;20106;-87
2023/01/04 12:52:23;;;;;;;8.88;3.63;;;;;;;-0.78;60.47;99406.06;4767248;29;20087;-87
2023/01/04 12:55:32;;;;;;;6.15;3.17;;;;;;;-0.77;60.56;99413.03;4784382;29;20050;-85
2023/01/04 12:58:22;;;;;;;5.50;3.15;;;;;;;-0.73;59.83;99398.13;4800232;29;20039;-87
2023/01/04 13:00:52;;;;;;;4.22;2.63;;;;;;;-0.90;60.53;99401.75;4799921;29;20065;-90
2023/01/04 13:03:18;;;;;;;6.65;3.85;;;;;;;-1.00;61.61;99402.34;4787319;29;20146;-90
2023/01/04 13:06:00;;;;;;;5.57;2.80;;;;;;;-1.63;61.34;99299.31;4785436;29;20442;-87
2023/01/04 13:09:00;;;;;;;5.70;2.90;;;;;;;-1.80;61.91;99295.72;4785668;29;20058;-87
2023/01/04 13:12:13;;;;;;;6.97;3.10;;;;;;;-1.08;61.96;99394.66;4792601;29;20138;-90
2023/01/04 13:15:02;;;;;;;8.23;3.83;;;;;;;-1.00;62.38;99405.03;4805126;29;20513;-89
2023/01/04 13:17:37;;;;;;;5.88;3.20;;;;;;;-1.34;62.23;99367.28;4792868;29;20049;-89
2023/01/04 13:20:21;;;;;;;10.43;3.78;;;;;;;-1.50;62.46;99306.31;4790349;29;20043;-87
2023/01/04 13:22:54;;;;;;;9.98;4.32;;;;;;;-1.21;61.45;99331.34;4797659;29;20054;-89
2023/01/04 13:25:23;;;;;;;9.45;4.50;;;;;;;-0.72;61.42;99406.97;4787964;29;20142;-86
2023/01/04 13:28:15;;;;;;;7.53;3.60;;;;;;;-1.09;62.68;99374.25;4783278;29;20047;-88
2023/01/04 13:31:26;;;;;;;6.95;3.95;;;;;;;-0.84;62.53;99404.31;4744106;30;20062;-90
2023/01/04 13:33:57;;;;;;;8.10;4.13;;;;;;;-1.48;63.37;99297.00;4822186;24;20438;-86
2023/01/04 13:36:26;;;;;;;7.80;5.18;;;;;;;-0.91;63.16;99386.72;4798978;24;20058;-90
2023/01/04 13:38:55;;;;;;;10.02;5.05;;;;;;;-1.21;63.55;99329.47;4796424;24;20196;-89
2023/01/04 13:41:56;;;;;;;10.85;4.82;;;;;;;-0.77;63.63;99390.75;4783255;29;20054;-87